sensor_id;sensor_type;location;lat;lon;timestamp;pressure;altitude;pressure_sealevel;temperature;humidity
64086;BME280;50333;47.436;21.390;2023-03-01T00:01:42;101708.37;;;5.11;60.54
64086;BME280;50333;47.436;21.390;2023-03-01T00:04:10;101709.53;;;5.08;60.94
64086;BME280;50333;47.436;21.390;2023-03-01T00:06:37;101698.56;;;5.35;60.34
64086;BME280;50333;47.436;21.390;2023-03-01T00:09:06;101706.47;;;5.26;60.15
64086;BME280;50333;47.436;21.390;2023-03-01T00:11:35;101708.00;;;5.62;59.10
64086;BME280;50333;47.436;21.390;2023-03-01T00:14:03;101708.81;;;5.63;58.45
64086;BME280;50333;47.436;21.390;2023-03-01T00:16:35;101702.59;;;5.51;58.65
64086;BME280;50333;47.436;21.390;2023-03-01T00:19:04;101700.09;;;5.29;59.39
64086;BME280;50333;47.436;21.390;2023-03-01T00:21:32;101693.00;;;5.44;59.03
64086;BME280;50333;47.436;21.390;2023-03-01T00:24:02;101691.84;;;5.05;59.82
64086;BME280;50333;47.436;21.390;2023-03-01T00:26:30;101686.31;;;5.15;59.62
64086;BME280;50333;47.436;21.390;2023-03-01T00:28:59;101687.72;;;5.18;59.93
64086;BME280;50333;47.436;21.390;2023-03-01T00:31:29;101685.91;;;5.60;58.63
64086;BME280;50333;47.436;21.390;2023-03-01T00:34:01;101683.88;;;5.42;58.96
64086;BME280;50333;47.436;21.390;2023-03-01T00:36:32;101683.47;;;5.45;58.84
64086;BME280;50333;47.436;21.390;2023-03-01T00:39:02;101679.16;;;5.65;58.19
64086;BME280;50333;47.436;21.390;2023-03-01T00:41:31;101678.00;;;5.75;58.16
64086;BME280;50333;47.436;21.390;2023-03-01T00:44:01;101678.78;;;5.89;57.73
64086;BME280;50333;47.436;21.390;2023-03-01T00:46:29;101679.50;;;5.49;58.09
64086;BME280;50333;47.436;21.390;2023-03-01T00:49:02;101677.78;;;5.83;57.86
64086;BME280;50333;47.436;21.390;2023-03-01T00:51:32;101680.47;;;6.03;56.93
64086;BME280;50333;47.436;21.390;2023-03-01T00:54:01;101680.31;;;5.56;57.94
64086;BME280;50333;47.436;21.390;2023-03-01T00:56:30;101683.38;;;5.73;57.92
64086;BME280;50333;47.436;21.390;2023-03-01T00:58:58;101681.97;;;5.77;58.25
64086;BME280;50333;47.436;21.390;2023-03-01T01:01:28;101688.94;;;5.90;57.83
64086;BME280;50333;47.436;21.390;2023-03-01T01:04:11;101688.25;;;5.48;58.21
64086;BME280;50333;47.436;21.390;2023-03-01T01:06:46;101688.38;;;5.95;57.43
64086;BME280;50333;47.436;21.390;2023-03-01T01:09:16;101684.84;;;6.16;57.11
64086;BME280;50333;47.436;21.390;2023-03-01T01:11:46;101682.66;;;6.13;57.11
64086;BME280;50333;47.436;21.390;2023-03-01T01:14:15;101677.09;;;6.29;57.01
64086;BME280;50333;47.436;21.390;2023-03-01T01:16:43;101682.06;;;6.24;57.73
64086;BME280;50333;47.436;21.390;2023-03-01T01:19:11;101675.47;;;6.21;57.42
64086;BME280;50333;47.436;21.390;2023-03-01T01:21:40;101676.88;;;6.24;57.77
64086;BME280;50333;47.436;21.390;2023-03-01T01:24:11;101677.69;;;6.31;57.57
64086;BME280;50333;47.436;21.390;2023-03-01T01:26:40;101678.09;;;6.15;58.03
64086;BME280;50333;47.436;21.390;2023-03-01T01:29:09;101679.28;;;6.32;57.32
64086;BME280;50333;47.436;21.390;2023-03-01T01:31:38;101669.31;;;6.09;57.77
64086;BME280;50333;47.436;21.390;2023-03-01T01:34:08;101669.09;;;6.11;57.74
64086;BME280;50333;47.436;21.390;2023-03-01T01:36:36;101659.28;;;5.86;57.50
64086;BME280;50333;47.436;21.390;2023-03-01T01:39:04;101658.47;;;5.72;57.69
64086;BME280;50333;47.436;21.390;2023-03-01T01:41:32;101654.13;;;5.86;57.88
64086;BME280;50333;47.436;21.390;2023-03-01T01:44:19;101654.37;;;5.36;58.85
64086;BME280;50333;47.436;21.390;2023-03-01T01:49:26;101645.41;;;5.25;58.49
64086;BME280;50333;47.436;21.390;2023-03-01T01:52:18;101646.72;;;5.63;57.86
64086;BME280;50333;47.436;21.390;2023-03-01T01:55:02;101641.16;;;5.66;57.88
64086;BME280;50333;47.436;21.390;2023-03-01T01:57:36;101639.66;;;4.88;58.84
64086;BME280;50333;47.436;21.390;2023-03-01T02:00:13;101639.78;;;4.73;59.97
64086;BME280;50333;47.436;21.390;2023-03-01T02:02:45;101640.37;;;5.10;59.00
64086;BME280;50333;47.436;21.390;2023-03-01T02:05:26;101641.72;;;4.65;59.89
64086;BME280;50333;47.436;21.390;2023-03-01T02:07:58;101627.13;;;4.85;59.54
64086;BME280;50333;47.436;21.390;2023-03-01T02:10:28;101629.78;;;4.64;59.88
64086;BME280;50333;47.436;21.390;2023-03-01T02:12:57;101624.38;;;4.94;59.60
64086;BME280;50333;47.436;21.390;2023-03-01T02:15:26;101617.63;;;4.58;60.19
64086;BME280;50333;47.436;21.390;2023-03-01T02:17:54;101618.25;;;4.31;60.92
64086;BME280;50333;47.436;21.390;2023-03-01T02:20:40;101608.62;;;4.47;59.97
64086;BME280;50333;47.436;21.390;2023-03-01T02:23:11;101609.66;;;4.52;59.85
64086;BME280;50333;47.436;21.390;2023-03-01T02:25:56;101604.06;;;4.21;60.61
64086;BME280;50333;47.436;21.390;2023-03-01T02:28:38;101601.97;;;4.31;60.39
64086;BME280;50333;47.436;21.390;2023-03-01T02:31:09;101595.84;;;4.67;59.59
64086;BME280;50333;47.436;21.390;2023-03-01T02:33:56;101597.69;;;4.45;59.96
64086;BME280;50333;47.436;21.390;2023-03-01T02:36:29;101595.00;;;4.31;59.94
64086;BME280;50333;47.436;21.390;2023-03-01T02:39:00;101601.31;;;4.22;60.54
64086;BME280;50333;47.436;21.390;2023-03-01T02:41:32;101601.19;;;4.37;60.07
64086;BME280;50333;47.436;21.390;2023-03-01T02:44:04;101607.91;;;4.03;60.60
64086;BME280;50333;47.436;21.390;2023-03-01T02:46:32;101605.03;;;4.13;60.31
64086;BME280;50333;47.436;21.390;2023-03-01T02:49:00;101600.59;;;4.35;59.71
64086;BME280;50333;47.436;21.390;2023-03-01T02:54:48;101612.22;;;4.52;59.62
64086;BME280;50333;47.436;21.390;2023-03-01T02:57:19;101609.41;;;4.47;59.46
64086;BME280;50333;47.436;21.390;2023-03-01T02:59:49;101612.94;;;4.11;60.04
64086;BME280;50333;47.436;21.390;2023-03-01T03:02:29;101613.91;;;4.32;60.03
64086;BME280;50333;47.436;21.390;2023-03-01T03:05:19;101620.13;;;4.44;59.67
64086;BME280;50333;47.436;21.390;2023-03-01T03:07:49;101612.41;;;4.44;59.33
64086;BME280;50333;47.436;21.390;2023-03-01T03:10:21;101618.66;;;4.35;59.86
64086;BME280;50333;47.436;21.390;2023-03-01T03:12:54;101616.91;;;4.36;60.01
64086;BME280;50333;47.436;21.390;2023-03-01T03:15:23;101615.09;;;4.08;60.87
64086;BME280;50333;47.436;21.390;2023-03-01T03:17:52;101609.81;;;4.44;59.87
64086;BME280;50333;47.436;21.390;2023-03-01T03:20:23;101605.75;;;4.63;59.46
64086;BME280;50333;47.436;21.390;2023-03-01T03:22:53;101601.62;;;4.69;59.43
64086;BME280;50333;47.436;21.390;2023-03-01T03:25:22;101595.84;;;4.67;59.25
64086;BME280;50333;47.436;21.390;2023-03-01T03:27:51;101600.03;;;4.40;59.72
64086;BME280;50333;47.436;21.390;2023-03-01T03:30:30;101594.84;;;4.68;59.11
64086;BME280;50333;47.436;21.390;2023-03-01T03:32:58;101594.53;;;4.21;60.27
64086;BME280;50333;47.436;21.390;2023-03-01T03:35:28;101597.19;;;4.63;59.33
64086;BME280;50333;47.436;21.390;2023-03-01T03:38:04;101592.41;;;4.95;58.52
64086;BME280;50333;47.436;21.390;2023-03-01T03:43:15;101592.03;;;4.63;59.00
64086;BME280;50333;47.436;21.390;2023-03-01T03:45:45;101593.22;;;4.04;60.47
64086;BME280;50333;47.436;21.390;2023-03-01T03:48:13;101580.72;;;4.01;60.73
64086;BME280;50333;47.436;21.390;2023-03-01T03:50:41;101578.06;;;3.94;61.14
64086;BME280;50333;47.436;21.390;2023-03-01T03:53:15;101579.56;;;3.82;61.08
64086;BME280;50333;47.436;21.390;2023-03-01T03:55:42;101583.41;;;3.71;60.99
64086;BME280;50333;47.436;21.390;2023-03-01T03:58:11;101575.19;;;3.82;61.20
64086;BME280;50333;47.436;21.390;2023-03-01T04:00:41;101576.59;;;3.63;61.54
64086;BME280;50333;47.436;21.390;2023-03-01T04:03:11;101584.34;;;3.63;61.34
64086;BME280;50333;47.436;21.390;2023-03-01T04:05:40;101584.84;;;3.52;61.94
64086;BME280;50333;47.436;21.390;2023-03-01T04:08:09;101581.88;;;3.33;62.49
64086;BME280;50333;47.436;21.390;2023-03-01T04:10:43;101583.94;;;3.45;62.27
64086;BME280;50333;47.436;21.390;2023-03-01T04:13:13;101592.00;;;3.20;62.80
64086;BME280;50333;47.436;21.390;2023-03-01T04:15:42;101582.72;;;3.40;62.66
64086;BME280;50333;47.436;21.390;2023-03-01T04:18:15;101584.84;;;3.15;62.92
64086;BME280;50333;47.436;21.390;2023-03-01T04:20:44;101581.06;;;3.33;62.19
64086;BME280;50333;47.436;21.390;2023-03-01T04:23:18;101578.84;;;3.30;62.53
64086;BME280;50333;47.436;21.390;2023-03-01T04:25:52;101574.34;;;3.17;62.40
64086;BME280;50333;47.436;21.390;2023-03-01T04:28:25;101568.19;;;2.96;62.84
64086;BME280;50333;47.436;21.390;2023-03-01T04:30:57;101570.19;;;3.01;63.01
64086;BME280;50333;47.436;21.390;2023-03-01T04:33:25;101573.78;;;2.85;63.36
64086;BME280;50333;47.436;21.390;2023-03-01T04:35:53;101574.28;;;2.95;63.66
64086;BME280;50333;47.436;21.390;2023-03-01T04:38:21;101572.84;;;3.08;63.06
64086;BME280;50333;47.436;21.390;2023-03-01T04:40:49;101571.66;;;3.25;62.72
64086;BME280;50333;47.436;21.390;2023-03-01T04:43:17;101573.63;;;3.08;62.73
64086;BME280;50333;47.436;21.390;2023-03-01T04:45:45;101576.69;;;3.12;62.72
64086;BME280;50333;47.436;21.390;2023-03-01T04:48:12;101587.09;;;3.04;62.62
64086;BME280;50333;47.436;21.390;2023-03-01T04:50:41;101589.13;;;2.93;62.89
64086;BME280;50333;47.436;21.390;2023-03-01T04:53:08;101593.19;;;3.02;62.93
64086;BME280;50333;47.436;21.390;2023-03-01T04:55:36;101594.94;;;3.17;62.37
64086;BME280;50333;47.436;21.390;2023-03-01T04:58:04;101586.88;;;3.20;62.28
64086;BME280;50333;47.436;21.390;2023-03-01T05:00:32;101593.09;;;3.11;62.54
64086;BME280;50333;47.436;21.390;2023-03-01T05:03:00;101593.72;;;3.13;62.62
64086;BME280;50333;47.436;21.390;2023-03-01T05:05:32;101587.09;;;3.04;62.81
64086;BME280;50333;47.436;21.390;2023-03-01T05:08:03;101587.09;;;3.04;62.69
64086;BME280;50333;47.436;21.390;2023-03-01T05:10:35;101584.50;;;3.04;62.77
64086;BME280;50333;47.436;21.390;2023-03-01T05:13:03;101594.34;;;3.15;62.53
64086;BME280;50333;47.436;21.390;2023-03-01T05:15:32;101587.16;;;2.95;63.24
64086;BME280;50333;47.436;21.390;2023-03-01T05:18:00;101594.09;;;2.95;62.95
64086;BME280;50333;47.436;21.390;2023-03-01T05:20:29;101594.03;;;2.88;63.25
64086;BME280;50333;47.436;21.390;2023-03-01T05:22:59;101586.72;;;2.92;63.34
64086;BME280;50333;47.436;21.390;2023-03-01T05:25:27;101590.47;;;2.89;63.10
64086;BME280;50333;47.436;21.390;2023-03-01T05:28:02;101589.75;;;2.95;62.99
64086;BME280;50333;47.436;21.390;2023-03-01T05:30:33;101596.50;;;2.96;63.39
64086;BME280;50333;47.436;21.390;2023-03-01T05:33:02;101593.28;;;2.94;63.17
64086;BME280;50333;47.436;21.390;2023-03-01T05:35:32;101597.59;;;3.24;62.36
64086;BME280;50333;47.436;21.390;2023-03-01T05:38:00;101598.34;;;3.17;62.25
64086;BME280;50333;47.436;21.390;2023-03-01T05:40:28;101593.81;;;3.05;62.51
64086;BME280;50333;47.436;21.390;2023-03-01T05:42:56;101597.06;;;3.28;62.22
64086;BME280;50333;47.436;21.390;2023-03-01T05:45:26;101597.16;;;3.20;62.06
64086;BME280;50333;47.436;21.390;2023-03-01T05:47:55;101603.31;;;3.19;62.13
64086;BME280;50333;47.436;21.390;2023-03-01T05:50:26;101606.78;;;3.26;62.05
64086;BME280;50333;47.436;21.390;2023-03-01T05:53:01;101605.16;;;3.25;61.90
64086;BME280;50333;47.436;21.390;2023-03-01T05:55:30;101599.13;;;3.33;62.18
64086;BME280;50333;47.436;21.390;2023-03-01T05:58:00;101604.00;;;3.28;62.00
64086;BME280;50333;47.436;21.390;2023-03-01T06:00:29;101607.78;;;3.10;62.46
64086;BME280;50333;47.436;21.390;2023-03-01T06:02:58;101606.87;;;3.18;62.59
64086;BME280;50333;47.436;21.390;2023-03-01T06:05:27;101610.88;;;3.20;62.74
64086;BME280;50333;47.436;21.390;2023-03-01T06:07:55;101612.44;;;3.36;62.18
64086;BME280;50333;47.436;21.390;2023-03-01T06:10:26;101605.66;;;3.35;62.51
64086;BME280;50333;47.436;21.390;2023-03-01T06:12:54;101602.47;;;3.33;62.30
64086;BME280;50333;47.436;21.390;2023-03-01T06:15:22;101606.31;;;3.81;61.60
64086;BME280;50333;47.436;21.390;2023-03-01T06:17:51;101608.41;;;3.49;61.49
64086;BME280;50333;47.436;21.390;2023-03-01T06:20:24;101606.09;;;3.39;61.92
64086;BME280;50333;47.436;21.390;2023-03-01T06:22:52;101598.84;;;3.64;61.62
64086;BME280;50333;47.436;21.390;2023-03-01T06:25:22;101609.87;;;3.58;61.42
64086;BME280;50333;47.436;21.390;2023-03-01T06:27:50;101602.84;;;3.30;62.13
64086;BME280;50333;47.436;21.390;2023-03-01T06:30:21;101605.56;;;3.65;61.56
64086;BME280;50333;47.436;21.390;2023-03-01T06:32:51;101605.56;;;3.65;61.52
64086;BME280;50333;47.436;21.390;2023-03-01T06:35:19;101619.28;;;3.87;61.10
64086;BME280;50333;47.436;21.390;2023-03-01T06:37:48;101618.16;;;3.96;60.21
64086;BME280;50333;47.436;21.390;2023-03-01T06:40:18;101606.31;;;4.02;60.26
64086;BME280;50333;47.436;21.390;2023-03-01T06:42:49;101614.31;;;3.86;61.00
64086;BME280;50333;47.436;21.390;2023-03-01T06:45:18;101609.53;;;4.11;60.01
64086;BME280;50333;47.436;21.390;2023-03-01T06:47:47;101618.50;;;3.87;60.73
64086;BME280;50333;47.436;21.390;2023-03-01T06:50:17;101618.19;;;4.25;59.88
64086;BME280;50333;47.436;21.390;2023-03-01T06:52:45;101617.53;;;4.16;60.48
64086;BME280;50333;47.436;21.390;2023-03-01T06:55:13;101616.47;;;4.32;59.71
64086;BME280;50333;47.436;21.390;2023-03-01T06:57:41;101613.94;;;4.67;59.67
64086;BME280;50333;47.436;21.390;2023-03-01T07:00:12;101603.75;;;4.59;60.00
64086;BME280;50333;47.436;21.390;2023-03-01T07:02:42;101610.19;;;4.76;59.80
64086;BME280;50333;47.436;21.390;2023-03-01T07:05:10;101601.53;;;4.56;59.95
64086;BME280;50333;47.436;21.390;2023-03-01T07:07:38;101608.81;;;4.80;59.57
64086;BME280;50333;47.436;21.390;2023-03-01T07:10:08;101605.03;;;4.76;59.47
64086;BME280;50333;47.436;21.390;2023-03-01T07:12:39;101611.53;;;4.65;59.07
64086;BME280;50333;47.436;21.390;2023-03-01T07:15:09;101611.25;;;4.88;59.20
64086;BME280;50333;47.436;21.390;2023-03-01T07:17:37;101608.22;;;4.43;59.83
64086;BME280;50333;47.436;21.390;2023-03-01T07:20:05;101604.94;;;4.63;59.40
64086;BME280;50333;47.436;21.390;2023-03-01T07:22:33;101605.34;;;4.66;59.24
64086;BME280;50333;47.436;21.390;2023-03-01T07:25:01;101604.88;;;4.49;60.06
64086;BME280;50333;47.436;21.390;2023-03-01T07:27:28;101610.13;;;4.34;59.99
64086;BME280;50333;47.436;21.390;2023-03-01T07:29:57;101601.38;;;4.64;59.92
64086;BME280;50333;47.436;21.390;2023-03-01T07:32:25;101606.87;;;4.54;60.19
64086;BME280;50333;47.436;21.390;2023-03-01T07:34:53;101606.94;;;5.02;59.36
64086;BME280;50333;47.436;21.390;2023-03-01T07:37:21;101605.84;;;4.83;59.27
64086;BME280;50333;47.436;21.390;2023-03-01T07:39:49;101608.50;;;4.97;59.50
64086;BME280;50333;47.436;21.390;2023-03-01T07:42:17;101607.69;;;4.89;59.31
64086;BME280;50333;47.436;21.390;2023-03-01T07:44:45;101601.34;;;4.99;59.73
64086;BME280;50333;47.436;21.390;2023-03-01T07:47:13;101598.41;;;5.02;59.07
64086;BME280;50333;47.436;21.390;2023-03-01T07:49:44;101600.25;;;5.21;58.56
64086;BME280;50333;47.436;21.390;2023-03-01T07:52:12;101602.25;;;5.26;58.67
64086;BME280;50333;47.436;21.390;2023-03-01T07:54:42;101591.06;;;5.19;59.06
64086;BME280;50333;47.436;21.390;2023-03-01T07:57:11;101591.50;;;5.29;58.33
64086;BME280;50333;47.436;21.390;2023-03-01T07:59:39;101588.78;;;5.44;58.82
64086;BME280;50333;47.436;21.390;2023-03-01T08:02:08;101589.56;;;5.51;58.58
64086;BME280;50333;47.436;21.390;2023-03-01T08:04:37;101596.37;;;5.72;58.22
64086;BME280;50333;47.436;21.390;2023-03-01T08:07:05;101589.41;;;5.73;57.71
64086;BME280;50333;47.436;21.390;2023-03-01T08:09:35;101589.03;;;5.89;58.21
64086;BME280;50333;47.436;21.390;2023-03-01T08:12:05;101582.25;;;5.88;58.00
64086;BME280;50333;47.436;21.390;2023-03-01T08:14:33;101585.87;;;6.00;57.83
64086;BME280;50333;47.436;21.390;2023-03-01T08:17:00;101583.66;;;6.24;57.16
64086;BME280;50333;47.436;21.390;2023-03-01T08:19:31;101590.41;;;5.85;57.98
64086;BME280;50333;47.436;21.390;2023-03-01T08:21:59;101587.03;;;5.91;57.31
64086;BME280;50333;47.436;21.390;2023-03-01T08:24:27;101577.50;;;6.18;56.66
64086;BME280;50333;47.436;21.390;2023-03-01T08:26:55;101585.16;;;6.65;56.10
64086;BME280;50333;47.436;21.390;2023-03-01T08:29:23;101584.81;;;6.55;56.25
64086;BME280;50333;47.436;21.390;2023-03-01T08:31:54;101575.34;;;6.80;55.92
64086;BME280;50333;47.436;21.390;2023-03-01T08:34:22;101572.06;;;6.53;56.21
64086;BME280;50333;47.436;21.390;2023-03-01T08:36:50;101576.00;;;6.63;56.56
64086;BME280;50333;47.436;21.390;2023-03-01T08:39:20;101567.69;;;6.47;55.99
64086;BME280;50333;47.436;21.390;2023-03-01T08:41:48;101563.59;;;6.85;55.57
64086;BME280;50333;47.436;21.390;2023-03-01T08:44:16;101554.44;;;6.75;55.36
64086;BME280;50333;47.436;21.390;2023-03-01T08:46:48;101551.22;;;6.80;55.72
64086;BME280;50333;47.436;21.390;2023-03-01T08:49:19;101541.63;;;6.87;55.41
64086;BME280;50333;47.436;21.390;2023-03-01T08:51:47;101541.19;;;6.97;55.17
64086;BME280;50333;47.436;21.390;2023-03-01T08:54:18;101540.84;;;7.25;54.88
64086;BME280;50333;47.436;21.390;2023-03-01T08:56:47;101532.84;;;6.95;54.83
64086;BME280;50333;47.436;21.390;2023-03-01T08:59:15;101532.91;;;7.13;55.37
64086;BME280;50333;47.436;21.390;2023-03-01T09:01:45;101537.63;;;7.30;55.27
64086;BME280;50333;47.436;21.390;2023-03-01T09:04:14;101541.50;;;7.46;54.13
64086;BME280;50333;47.436;21.390;2023-03-01T09:06:42;101539.53;;;7.41;54.39
64086;BME280;50333;47.436;21.390;2023-03-01T09:09:14;101534.47;;;7.78;54.41
64086;BME280;50333;47.436;21.390;2023-03-01T09:11:44;101529.31;;;7.97;53.62
64086;BME280;50333;47.436;21.390;2023-03-01T09:14:14;101525.22;;;8.26;53.33
64086;BME280;50333;47.436;21.390;2023-03-01T09:16:42;101518.09;;;8.40;51.68
64086;BME280;50333;47.436;21.390;2023-03-01T09:19:10;101520.53;;;8.35;52.33
64086;BME280;50333;47.436;21.390;2023-03-01T09:21:39;101521.44;;;8.47;51.66
64086;BME280;50333;47.436;21.390;2023-03-01T09:24:14;101521.69;;;8.76;51.85
64086;BME280;50333;47.436;21.390;2023-03-01T09:26:43;101514.78;;;8.51;51.64
64086;BME280;50333;47.436;21.390;2023-03-01T09:29:16;101516.78;;;8.98;51.23
64086;BME280;50333;47.436;21.390;2023-03-01T09:31:44;101521.66;;;8.94;50.77
64086;BME280;50333;47.436;21.390;2023-03-01T09:34:11;101510.69;;;9.46;49.96
64086;BME280;50333;47.436;21.390;2023-03-01T09:36:42;101512.31;;;9.82;49.45
64086;BME280;50333;47.436;21.390;2023-03-01T09:39:10;101508.44;;;9.73;49.26
64086;BME280;50333;47.436;21.390;2023-03-01T09:42:00;101506.84;;;9.60;49.58
64086;BME280;50333;47.436;21.390;2023-03-01T09:44:42;101508.66;;;9.48;49.51
64086;BME280;50333;47.436;21.390;2023-03-01T09:47:17;101496.09;;;9.92;49.02
64086;BME280;50333;47.436;21.390;2023-03-01T09:50:11;101487.97;;;10.41;47.28
64086;BME280;50333;47.436;21.390;2023-03-01T09:55:38;101489.47;;;10.37;47.68
64086;BME280;50333;47.436;21.390;2023-03-01T10:00:48;101478.47;;;10.47;47.41
64086;BME280;50333;47.436;21.390;2023-03-01T10:03:23;101484.00;;;10.50;47.17
64086;BME280;50333;47.436;21.390;2023-03-01T10:06:01;101484.16;;;10.08;48.07
64086;BME280;50333;47.436;21.390;2023-03-01T10:11:08;101479.69;;;9.92;49.12
64086;BME280;50333;47.436;21.390;2023-03-01T10:14:01;101473.78;;;10.61;47.89
64086;BME280;50333;47.436;21.390;2023-03-01T10:19:12;101475.28;;;10.45;47.13
64086;BME280;50333;47.436;21.390;2023-03-01T10:21:45;101460.91;;;10.42;47.37
64086;BME280;50333;47.436;21.390;2023-03-01T10:24:15;101470.13;;;10.33;47.25
64086;BME280;50333;47.436;21.390;2023-03-01T10:26:57;101468.19;;;10.57;46.64
64086;BME280;50333;47.436;21.390;2023-03-01T10:29:34;101462.19;;;10.56;47.35
64086;BME280;50333;47.436;21.390;2023-03-01T10:32:05;101456.12;;;10.51;46.76
64086;BME280;50333;47.436;21.390;2023-03-01T10:34:36;101454.09;;;10.70;46.14
64086;BME280;50333;47.436;21.390;2023-03-01T10:37:16;101458.59;;;10.57;47.29
64086;BME280;50333;47.436;21.390;2023-03-01T10:42:32;101455.13;;;10.69;47.94
64086;BME280;50333;47.436;21.390;2023-03-01T10:48:22;101446.47;;;10.80;46.36
64086;BME280;50333;47.436;21.390;2023-03-01T10:53:35;101437.94;;;11.36;45.84
64086;BME280;50333;47.436;21.390;2023-03-01T10:56:12;101434.59;;;11.23;46.08
64086;BME280;50333;47.436;21.390;2023-03-01T10:59:17;101434.59;;;11.23;45.76
64086;BME280;50333;47.436;21.390;2023-03-01T11:07:54;101414.41;;;11.92;44.60
64086;BME280;50333;47.436;21.390;2023-03-01T11:10:35;101406.13;;;11.78;45.09
64086;BME280;50333;47.436;21.390;2023-03-01T11:13:16;101401.91;;;11.77;44.82
64086;BME280;50333;47.436;21.390;2023-03-01T11:16:10;101409.25;;;11.58;45.72
64086;BME280;50333;47.436;21.390;2023-03-01T11:18:40;101400.59;;;11.74;45.34
64086;BME280;50333;47.436;21.390;2023-03-01T11:21:16;101393.25;;;11.93;45.32
64086;BME280;50333;47.436;21.390;2023-03-01T11:23:45;101389.31;;;11.74;45.94
64086;BME280;50333;47.436;21.390;2023-03-01T11:26:15;101391.25;;;12.00;45.29
64086;BME280;50333;47.436;21.390;2023-03-01T11:28:50;101377.00;;;12.40;44.96
64086;BME280;50333;47.436;21.390;2023-03-01T11:31:19;101373.91;;;12.43;44.93
64086;BME280;50333;47.436;21.390;2023-03-01T11:36:51;101375.59;;;12.60;44.28
64086;BME280;50333;47.436;21.390;2023-03-01T11:39:58;101369.47;;;12.44;44.25
64086;BME280;50333;47.436;21.390;2023-03-01T11:42:37;101367.88;;;12.43;43.63
64086;BME280;50333;47.436;21.390;2023-03-01T11:45:10;101357.97;;;12.18;44.49
64086;BME280;50333;47.436;21.390;2023-03-01T11:48:03;101354.16;;;12.31;44.35
64086;BME280;50333;47.436;21.390;2023-03-01T11:50:42;101352.91;;;12.33;45.42
64086;BME280;50333;47.436;21.390;2023-03-01T11:59:18;101347.41;;;12.07;45.62
64086;BME280;50333;47.436;21.390;2023-03-01T12:10:27;101316.28;;;12.06;45.25
64086;BME280;50333;47.436;21.390;2023-03-01T12:13:18;101315.28;;;11.85;45.11
64086;BME280;50333;47.436;21.390;2023-03-01T12:19:00;101303.12;;;11.96;45.31
64086;BME280;50333;47.436;21.390;2023-03-01T12:27:17;101301.84;;;11.98;45.68
64086;BME280;50333;47.436;21.390;2023-03-01T12:32:46;101287.66;;;11.67;46.08
64086;BME280;50333;47.436;21.390;2023-03-01T12:35:24;101274.22;;;12.40;45.08
64086;BME280;50333;47.436;21.390;2023-03-01T12:47:11;101289.47;;;12.16;44.24
64086;BME280;50333;47.436;21.390;2023-03-01T12:49:49;101274.84;;;12.20;45.40
64086;BME280;50333;47.436;21.390;2023-03-01T12:54:56;101276.88;;;12.13;44.90
64086;BME280;50333;47.436;21.390;2023-03-01T12:57:37;101270.69;;;12.56;44.65
64086;BME280;50333;47.436;21.390;2023-03-01T13:02:51;101270.25;;;11.78;44.34
64086;BME280;50333;47.436;21.390;2023-03-01T13:05:46;101267.66;;;11.78;45.44
64086;BME280;50333;47.436;21.390;2023-03-01T13:08:22;101269.69;;;11.98;45.56
64086;BME280;50333;47.436;21.390;2023-03-01T13:10:58;101267.41;;;12.06;43.96
64086;BME280;50333;47.436;21.390;2023-03-01T13:13:28;101271.28;;;12.31;44.96
64086;BME280;50333;47.436;21.390;2023-03-01T13:16:19;101260.59;;;12.00;44.90
64086;BME280;50333;47.436;21.390;2023-03-01T13:18:48;101267.87;;;11.98;45.03
64086;BME280;50333;47.436;21.390;2023-03-01T13:21:30;101263.78;;;12.07;44.73
64086;BME280;50333;47.436;21.390;2023-03-01T13:23:58;101264.06;;;12.11;44.13
64086;BME280;50333;47.436;21.390;2023-03-01T13:26:26;101266.06;;;11.77;44.91
64086;BME280;50333;47.436;21.390;2023-03-01T13:28:58;101262.03;;;11.91;45.44
64086;BME280;50333;47.436;21.390;2023-03-01T13:34:00;101260.16;;;12.14;45.77
64086;BME280;50333;47.436;21.390;2023-03-01T13:39:26;101253.69;;;12.59;44.55
64086;BME280;50333;47.436;21.390;2023-03-01T13:41:55;101256.25;;;12.49;43.70
64086;BME280;50333;47.436;21.390;2023-03-01T13:44:29;101260.50;;;12.60;43.71
64086;BME280;50333;47.436;21.390;2023-03-01T13:49:33;101252.06;;;12.48;43.64
64086;BME280;50333;47.436;21.390;2023-03-01T13:55:04;101261.59;;;12.26;43.82
64086;BME280;50333;47.436;21.390;2023-03-01T13:57:36;101259.00;;;12.32;44.21
64086;BME280;50333;47.436;21.390;2023-03-01T14:03:05;101256.87;;;12.66;43.75
64086;BME280;50333;47.436;21.390;2023-03-01T14:05:37;101250.09;;;12.65;43.72
64086;BME280;50333;47.436;21.390;2023-03-01T14:08:18;101247.09;;;12.46;43.65
64086;BME280;50333;47.436;21.390;2023-03-01T14:18:48;101240.50;;;12.06;44.33
64086;BME280;50333;47.436;21.390;2023-03-01T14:21:19;101239.09;;;12.25;44.20
64086;BME280;50333;47.436;21.390;2023-03-01T14:23:48;101231.06;;;12.37;44.12
64086;BME280;50333;47.436;21.390;2023-03-01T14:26:21;101231.84;;;12.38;43.16
64086;BME280;50333;47.436;21.390;2023-03-01T14:28:50;101230.09;;;12.49;43.25
64086;BME280;50333;47.436;21.390;2023-03-01T14:31:38;101219.44;;;12.60;43.46
64086;BME280;50333;47.436;21.390;2023-03-01T14:34:23;101213.03;;;12.41;43.24
64086;BME280;50333;47.436;21.390;2023-03-01T14:36:53;101217.41;;;12.73;43.04
64086;BME280;50333;47.436;21.390;2023-03-01T14:39:25;101216.16;;;12.80;42.54
64086;BME280;50333;47.436;21.390;2023-03-01T14:41:56;101212.63;;;12.54;42.42
64086;BME280;50333;47.436;21.390;2023-03-01T14:44:50;101202.69;;;12.19;43.19
64086;BME280;50333;47.436;21.390;2023-03-01T14:47:34;101193.66;;;12.32;43.07
64086;BME280;50333;47.436;21.390;2023-03-01T14:50:09;101204.09;;;12.32;42.64
64086;BME280;50333;47.436;21.390;2023-03-01T14:52:42;101210.75;;;12.12;43.06